Weather History for Hebron, NE

Change the Weather History Date:

Monday, December 31, 2012

  Actual Average Record
Temperature  
Mean Temperature 24 °F -  
Max Temperature 30 °F 30 °F 60 °F (1965)
Min Temperature 17 °F 10 °F -17 °F (1968)
Degree Days  
Heating Degree Days 42    
Moisture  
Dew Point 19 °F    
Average Humidity 86    
Maximum Humidity 92    
Minimum Humidity 73    
Precipitation  
Precipitation 0.02 in - - ()
Sea Level Pressure  
Sea Level Pressure 30.14 in    
Wind  
Wind Speed 8 mph (NNE)    
Max Wind Speed 18 mph    
Max Gust Speed 24 mph    
Visibility 5 miles    
Events Snow    
Averages and records for this station are not official NWS values.
T = Trace of Precipitation, MM = Missing Value Source: NWS Daily Summary

Daily Weather History Graph

Daily Weather History Graph

Search for Another Location

Airport:

Trip Planner

Search our weather history database for the weather conditions in past years. The results will help you decide how hot, cold, wet, or windy it might be!

Date:

Astronomy

Dec. 31, 2012 Rise Set
Actual Time 7:52 AM CST 5:14 PM CST
Civil Twilight 7:22 AM CST 5:45 PM CST
Nautical Twilight 6:48 AM CST 6:19 PM CST
Astronomical Twilight 6:15 AM CST 6:52 PM CST
Moon 8:46 PM CST (12/31) 9:34 AM CST (12/31)
Length of Visible Light 10h 23m
Length of Day
9h 22m
Waning Gibbous, 90% of the Moon is Illuminated
Dec 31
Waning Gibbous
Jan 4
Last Quarter
Jan 11
New
Jan 18
First Quarter
Jan 26
Full

Hourly Weather History & Observations

Time (CST) Temp. Windchill Dew Point Humidity Pressure Visibility Wind Dir Wind Speed Gust Speed Precip Events Conditions
12:15 AM 30.0 °F - 23.0 °F 75% 30.10 in 10.0 mi Calm Calm - N/A   Clear
12:35 AM 29.7 °F 23.7 °F 22.8 °F 76% 30.11 in 10.0 mi NW 5.8 mph - N/A   Mostly Cloudy
12:55 AM 29.7 °F 26.1 °F 22.1 °F 73% 30.11 in 10.0 mi North 3.5 mph - N/A   Overcast
1:15 AM 29.5 °F 23.4 °F 21.7 °F 73% 30.12 in 10.0 mi North 5.8 mph - N/A   Overcast
1:35 AM 29.1 °F 22.1 °F 21.6 °F 73% 30.11 in 10.0 mi North 6.9 mph - N/A   Overcast
1:55 AM 28.9 °F 21.9 °F 21.2 °F 73% 30.12 in 10.0 mi North 6.9 mph - N/A   Overcast
2:15 AM 28.4 °F 23.3 °F 21.2 °F 74% 30.11 in 10.0 mi North 4.6 mph - N/A   Overcast
2:35 AM 28.4 °F 22.2 °F 21.0 °F 74% 30.12 in 10.0 mi NNE 5.8 mph - N/A   Overcast
2:55 AM 28.0 °F 19.3 °F 20.8 °F 74% 30.12 in 10.0 mi NNE 9.2 mph - N/A   Overcast
3:15 AM 27.5 °F 18.0 °F 20.1 °F 74% 30.12 in 10.0 mi North 10.4 mph - N/A   Overcast
3:35 AM 27.1 °F 18.2 °F 19.9 °F 74% 30.12 in 10.0 mi NNE 9.2 mph - N/A   Overcast
3:55 AM 26.6 °F 20.0 °F 20.1 °F 77% 30.12 in 10.0 mi NNE 5.8 mph - N/A   Overcast
4:15 AM 26.6 °F 19.1 °F 20.3 °F 77% 30.12 in 10.0 mi NNE 6.9 mph - N/A   Overcast
4:35 AM 26.2 °F 17.1 °F 19.9 °F 77% 30.12 in 10.0 mi NNE 9.2 mph - N/A   Overcast
4:55 AM 25.7 °F 17.1 °F 20.3 °F 80% 30.11 in 10.0 mi NE 8.1 mph - N/A   Overcast
5:15 AM 25.7 °F 16.4 °F 20.1 °F 79% 30.12 in 10.0 mi NNE 9.2 mph - N/A   Overcast
5:35 AM 25.2 °F 15.7 °F 19.9 °F 81% 30.11 in 10.0 mi NNE 9.2 mph - N/A   Overcast
5:55 AM 25.0 °F 14.2 °F 20.1 °F 82% 30.11 in 10.0 mi NNE 11.5 mph - N/A   Overcast
6:15 AM 24.8 °F 15.3 °F 20.1 °F 82% 30.11 in 10.0 mi NNE 9.2 mph - N/A   Overcast
6:55 AM 24.6 °F 14.4 °F 20.1 °F 83% 30.12 in 10.0 mi NNE 10.4 mph - N/A   Overcast
7:15 AM 24.4 °F 14.9 °F 20.1 °F 84% 30.12 in 10.0 mi NNE 9.2 mph - N/A   Overcast
7:35 AM 24.3 °F 13.9 °F 20.1 °F 84% 30.12 in 10.0 mi NNE 10.4 mph - N/A   Overcast
7:55 AM 23.9 °F 12.9 °F 19.9 °F 85% 30.12 in 10.0 mi NNE 11.5 mph 17.3 mph N/A   Overcast
8:15 AM 23.9 °F 12.9 °F 19.9 °F 85% 30.12 in 10.0 mi NNE 11.5 mph - N/A Snow Light Snow
8:35 AM 23.7 °F 14.0 °F 20.7 °F 88% 30.13 in 1.5 mi NNE 9.2 mph - N/A Snow Light Snow
8:55 AM 23.0 °F 13.1 °F 20.7 °F 91% 30.13 in 0.8 mi NNE 9.2 mph 16.1 mph N/A Snow Light Snow
9:15 AM 22.8 °F 12.9 °F 20.3 °F 90% 30.14 in 0.8 mi NNE 9.2 mph - N/A Snow Light Snow
9:35 AM 22.5 °F 11.7 °F 20.3 °F 91% 30.15 in 0.8 mi NNE 10.4 mph - N/A Snow Light Snow
9:55 AM 22.1 °F 10.6 °F 20.1 °F 92% 30.15 in 0.8 mi NNE 11.5 mph - N/A Snow Light Snow
10:15 AM 22.1 °F 12.8 °F 20.1 °F 92% 30.16 in 1.0 mi NNE 8.1 mph - N/A Snow Light Snow
10:35 AM 22.5 °F 13.2 °F 20.3 °F 91% 30.17 in 1.0 mi NE 8.1 mph - 0.01 in Snow Light Snow
10:55 AM 22.1 °F 10.0 °F 20.1 °F 92% 30.16 in 0.8 mi NE 12.7 mph - 0.01 in Snow Light Snow
11:15 AM 22.1 °F 11.3 °F 19.9 °F 91% 30.16 in 0.8 mi NNE 10.4 mph - N/A Snow Light Snow
11:35 AM 22.1 °F 10.6 °F 19.4 °F 89% 30.16 in 1.0 mi NE 11.5 mph - N/A Snow Light Snow
11:55 AM 21.9 °F 9.8 °F 19.4 °F 90% 30.15 in 0.8 mi NE 12.7 mph - N/A Snow Light Snow
12:15 PM 22.1 °F 10.0 °F 19.8 °F 91% 30.14 in 1.0 mi NNE 12.7 mph - N/A Snow Light Snow
12:35 PM 21.7 °F 8.5 °F 19.2 °F 90% 30.12 in 0.5 mi NE 15.0 mph - N/A Snow Snow
12:55 PM 22.1 °F 7.6 °F 19.4 °F 89% 30.09 in 0.8 mi NNE 18.4 mph 24.2 mph N/A Snow Light Snow
1:35 PM 22.1 °F 10.0 °F 19.0 °F 88% 30.10 in 1.0 mi NNE 12.7 mph - N/A Snow Light Snow
1:55 PM 22.1 °F 10.0 °F 19.2 °F 89% 30.10 in 1.0 mi NE 12.7 mph - N/A Snow Light Snow
2:15 PM 21.9 °F 9.8 °F 19.6 °F 91% 30.09 in 0.8 mi NE 12.7 mph - N/A Snow Light Snow
2:35 PM 21.9 °F 11.0 °F 19.4 °F 90% 30.10 in 0.5 mi NNE 10.4 mph - N/A Snow Snow
2:55 PM 21.9 °F 10.4 °F 19.9 °F 92% 30.10 in 0.5 mi NE 11.5 mph - N/A Snow Snow
3:15 PM 22.1 °F 11.3 °F 19.9 °F 91% 30.10 in 0.5 mi NE 10.4 mph - N/A Snow Light Snow
3:35 PM 22.1 °F 12.0 °F 20.1 °F 92% 30.11 in 0.5 mi NE 9.2 mph - 0.01 in Snow Light Snow
3:55 PM 22.1 °F 10.6 °F 20.1 °F 92% 30.11 in 0.5 mi NNE 11.5 mph - 0.01 in Snow Light Snow
4:15 PM 22.1 °F 10.0 °F 19.8 °F 91% 30.12 in 1.2 mi NNE 12.7 mph - N/A Snow Light Snow
4:35 PM 21.9 °F 9.2 °F 19.4 °F 90% 30.13 in 1.0 mi NNE 13.8 mph - N/A Snow Light Snow
4:55 PM 21.4 °F 8.5 °F 19.2 °F 91% 30.13 in 0.8 mi NNE 13.8 mph - N/A Snow Light Snow
5:15 PM 21.2 °F 8.9 °F 19.0 °F 91% 30.14 in 1.2 mi NNE 12.7 mph - N/A Snow Light Snow
5:35 PM 21.2 °F 9.5 °F 19.0 °F 91% 30.14 in 2.5 mi NNE 11.5 mph - N/A Snow Light Snow
5:55 PM 21.2 °F 10.9 °F 19.0 °F 91% 30.14 in 2.0 mi NNE 9.2 mph 16.1 mph N/A Snow Light Snow
6:15 PM 21.2 °F 10.1 °F 19.2 °F 92% 30.15 in 1.8 mi NNE 10.4 mph - N/A Snow Light Snow
6:35 PM 21.2 °F 9.5 °F 19.2 °F 92% 30.15 in 1.8 mi NNE 11.5 mph - N/A Snow Light Snow
6:55 PM 21.2 °F 10.9 °F 19.2 °F 92% 30.15 in 1.8 mi NNE 9.2 mph - N/A Snow Light Snow
7:35 PM 21.2 °F 10.1 °F 19.0 °F 91% 30.16 in 2.5 mi NNE 10.4 mph - N/A Snow Light Snow
8:35 PM 21.2 °F 11.7 °F 18.9 °F 91% 30.17 in 3.0 mi NNE 8.1 mph - N/A Snow Light Snow
8:55 PM 21.0 °F 13.4 °F 18.7 °F 91% 30.17 in 4.0 mi NNE 5.8 mph - N/A Snow Light Snow
9:35 PM 19.8 °F 10.8 °F 16.7 °F 88% 30.18 in 7.0 mi NNE 6.9 mph - N/A Snow Light Snow
9:55 PM 19.2 °F 10.2 °F 16.5 °F 89% 30.19 in 10.0 mi NNE 6.9 mph - N/A Snow Light Snow
10:15 PM 18.3 °F 10.2 °F 15.6 °F 89% 30.20 in 10.0 mi NNE 5.8 mph - N/A   Scattered Clouds
10:35 PM 17.6 °F 12.3 °F 14.9 °F 89% 30.20 in 10.0 mi NNE 3.5 mph - N/A   Mostly Cloudy
10:55 PM 17.6 °F 12.3 °F 14.9 °F 89% 30.21 in 10.0 mi NNE 3.5 mph - N/A   Overcast
11:15 PM 18.5 °F 13.3 °F 15.4 °F 88% 30.21 in 10.0 mi North 3.5 mph - N/A   Overcast
11:35 PM 18.0 °F - 14.9 °F 88% 30.22 in 10.0 mi Calm Calm - N/A   Overcast
11:55 PM 18.1 °F 11.3 °F 14.7 °F 86% 30.22 in 10.0 mi North 4.6 mph - N/A   Overcast